Time;durP1;ratioP1;P1;durP2;ratioP2;P2;SDS_P1;SDS_P2;PMS_P1;PMS_P2;Temp;Humidity;BMP_temperature;BMP_pressure;BME280_temperature;BME280_humidity;BME280_pressure;Samples;Min_cycle;Max_cycle;Signal;HPM_P1;HPM_P2
2023/08/16 00:02:18;;;;;;;110.77;3.53;;;24.90;49.90;;;;;;5071855;28;20187;-76
2023/08/16 00:04:44;;;;;;;110.80;3.57;;;25.40;47.30;;;;;;5058050;28;20186;-76
2023/08/16 00:07:09;;;;;;;110.10;2.90;;;25.50;47.70;;;;;;5063334;28;20190;-75
2023/08/16 00:09:35;;;;;;;111.97;4.10;;;25.30;48.50;;;;;;5099341;22;21061;-75
2023/08/16 00:12:01;;;;;;;109.77;2.97;;;25.30;48.70;;;;;;5050086;28;20222;-75
2023/08/16 00:14:26;;;;;;;110.97;3.40;;;25.30;48.90;;;;;;5051245;28;20178;-75
2023/08/16 00:16:52;;;;;;;110.00;2.97;;;25.40;47.40;;;;;;5051338;28;20550;-75
2023/08/16 00:19:17;;;;;;;115.90;3.90;;;25.60;46.70;;;;;;5051613;28;20256;-75
2023/08/16 00:21:43;;;;;;;112.23;3.83;;;25.50;46.70;;;;;;5051462;28;20180;-75
2023/08/16 00:24:09;;;;;;;109.97;3.10;;;25.30;47.70;;;;;;5051773;28;20170;-75
2023/08/16 00:26:35;;;;;;;110.50;3.40;;;25.30;47.90;;;;;;5051437;28;20422;-75
2023/08/16 00:29:02;;;;;;;114.90;4.00;;;25.30;47.60;;;;;;5051405;28;20186;-75
2023/08/16 00:31:27;;;;;;;111.20;3.47;;;25.00;48.00;;;;;;5051125;28;20207;-75
2023/08/16 00:33:53;;;;;;;110.97;3.27;;;24.70;50.20;;;;;;5033614;28;20416;-75
2023/08/16 00:36:18;;;;;;;110.77;3.20;;;24.90;49.90;;;;;;5051112;28;20250;-75
2023/08/16 00:38:44;;;;;;;110.70;3.30;;;25.00;49.10;;;;;;5051007;28;20535;-76
2023/08/16 00:41:13;;;;;;;111.80;3.83;;;24.90;49.70;;;;;;5047725;28;20203;-75
2023/08/16 00:43:39;;;;;;;111.07;3.60;;;25.00;49.20;;;;;;5050942;28;20262;-75
2023/08/16 00:46:07;;;;;;;110.93;3.43;;;25.00;49.70;;;;;;5050793;28;20487;-75
2023/08/16 00:48:35;;;;;;;110.70;3.20;;;26.40;51.30;;;;;;5051223;28;20401;-76
2023/08/16 00:51:01;;;;;;;110.37;2.93;;;24.90;49.70;;;;;;5033290;28;20767;-75
2023/08/16 00:53:30;;;;;;;111.07;3.57;;;24.90;49.40;;;;;;5051190;28;20410;-75
2023/08/16 00:55:56;;;;;;;111.50;3.37;;;24.90;49.60;;;;;;5050910;28;20420;-76
2023/08/16 00:58:22;;;;;;;110.67;3.20;;;24.90;49.60;;;;;;5051218;28;20416;-75
2023/08/16 01:00:48;;;;;;;111.23;3.37;;;24.80;48.40;;;;;;5051060;28;20926;-75
2023/08/16 01:03:14;;;;;;;110.17;2.90;;;24.90;48.30;;;;;;5051187;28;20407;-75
2023/08/16 01:05:40;;;;;;;110.87;3.40;;;24.90;48.00;;;;;;5052407;28;20726;-75
2023/08/16 01:08:06;;;;;;;113.97;3.53;;;24.80;48.30;;;;;;5055380;28;20591;-75
2023/08/16 01:10:44;;;;;;;110.97;3.00;;;24.80;47.60;;;;;;5054811;28;20448;-76
2023/08/16 01:13:15;;;;;;;110.90;3.10;;;24.80;48.00;;;;;;5046914;28;20796;-75
2023/08/16 01:15:47;;;;;;;111.03;3.00;;;24.70;48.00;;;;;;5049999;28;20948;-76
2023/08/16 01:18:13;;;;;;;111.17;3.30;;;24.70;47.70;;;;;;5051823;28;20516;-76
2023/08/16 01:20:40;;;;;;;110.87;3.23;;;24.80;49.50;;;;;;5054654;28;21013;-75
2023/08/16 01:23:08;;;;;;;113.67;3.70;;;24.80;48.70;;;;;;5054852;28;20830;-75
2023/08/16 01:25:46;;;;;;;112.60;3.70;;;24.70;47.60;;;;;;5036396;28;20417;-75
2023/08/16 01:28:14;;;;;;;110.80;3.10;;;24.40;46.90;;;;;;5055045;28;20925;-75
2023/08/16 01:30:40;;;;;;;110.77;3.00;;;24.30;50.00;;;;;;5036645;28;21231;-75
2023/08/16 01:33:07;;;;;;;111.70;3.33;;;24.40;49.50;;;;;;5036762;28;20433;-75
2023/08/16 01:35:34;;;;;;;111.50;3.67;;;24.50;49.30;;;;;;5054332;28;20449;-76
2023/08/16 01:38:00;;;;;;;111.13;3.27;;;24.60;49.20;;;;;;5054481;28;20784;-75
2023/08/16 01:40:29;;;;;;;110.93;3.07;;;24.40;47.60;;;;;;5054465;28;20779;-75
2023/08/16 01:42:56;;;;;;;113.63;3.50;;;23.50;52.50;;;;;;5033446;28;20458;-76
2023/08/16 01:45:22;;;;;;;111.50;3.60;;;22.80;57.40;;;;;;5042705;28;20423;-75
2023/08/16 01:47:49;;;;;;;111.57;3.30;;;23.10;57.30;;;;;;5050626;28;20426;-75
2023/08/16 01:50:16;;;;;;;111.10;3.30;;;23.60;55.10;;;;;;5051066;28;20571;-75
2023/08/16 01:52:42;;;;;;;110.93;3.13;;;23.80;52.90;;;;;;5053488;28;20466;-75
2023/08/16 01:55:08;;;;;;;111.37;3.23;;;23.70;52.30;;;;;;5048965;28;20435;-75
2023/08/16 01:57:33;;;;;;;111.23;3.30;;;23.20;55.50;;;;;;5045021;28;20654;-76
2023/08/16 01:59:59;;;;;;;111.80;3.40;;;23.60;54.10;;;;;;5047192;28;20441;-75
2023/08/16 02:02:24;;;;;;;112.17;3.80;;;23.80;53.40;;;;;;5053951;28;20643;-75
2023/08/16 02:04:50;;;;;;;111.53;3.20;;;23.80;52.60;;;;;;5053806;28;20197;-75
2023/08/16 02:07:16;;;;;;;111.67;3.57;;;23.80;52.40;;;;;;5053993;28;20202;-75
2023/08/16 02:09:41;;;;;;;111.27;3.30;;;24.10;52.00;;;;;;5053879;28;20223;-75
2023/08/16 02:12:07;;;;;;;111.10;3.10;;;24.10;51.20;;;;;;5053908;28;20220;-75
2023/08/16 02:14:33;;;;;;;112.67;3.73;;;24.10;52.30;;;;;;5052938;28;20227;-75
2023/08/16 02:16:58;;;;;;;111.60;3.43;;;24.20;51.20;;;;;;5046207;28;20432;-75
2023/08/16 02:19:24;;;;;;;112.27;3.43;;;24.00;51.00;;;;;;5047340;28;20240;-75
2023/08/16 02:21:50;;;;;;;111.97;3.47;;;24.00;51.30;;;;;;5036658;28;20270;-76
2023/08/16 02:24:15;;;;;;;112.50;3.53;;;24.10;51.30;;;;;;5048319;28;20194;-75
2023/08/16 02:26:41;;;;;;;112.70;3.27;;;24.30;50.80;;;;;;5047810;28;20191;-76
2023/08/16 02:29:06;;;;;;;111.27;3.20;;;24.10;50.70;;;;;;5053555;28;20417;-75
2023/08/16 02:31:32;;;;;;;111.90;3.53;;;24.00;51.60;;;;;;5051610;28;20665;-75
2023/08/16 02:33:58;;;;;;;111.57;3.30;;;23.90;52.60;;;;;;5049900;28;20565;-75
2023/08/16 02:36:24;;;;;;;111.20;3.10;;;24.20;50.70;;;;;;5047384;28;20538;-75
2023/08/16 02:38:49;;;;;;;112.40;3.87;;;24.40;48.60;;;;;;5044833;28;20544;-76
2023/08/16 02:41:15;;;;;;;113.00;3.80;;;24.40;49.70;;;;;;5040382;28;20223;-75
2023/08/16 02:43:40;;;;;;;111.67;3.37;;;24.30;49.70;;;;;;5045608;28;20734;-75
2023/08/16 02:46:06;;;;;;;111.70;3.37;;;24.10;50.70;;;;;;5035172;28;20175;-75
2023/08/16 02:48:31;;;;;;;111.47;3.13;;;24.00;51.20;;;;;;5053181;28;20210;-75
2023/08/16 02:50:57;;;;;;;111.77;3.17;;;24.30;50.30;;;;;;5052781;28;20213;-76
2023/08/16 02:53:23;;;;;;;111.10;2.80;;;24.10;50.10;;;;;;5053313;28;20169;-76
2023/08/16 02:55:48;;;;;;;112.30;3.10;;;24.10;50.90;;;;;;5053220;28;20256;-75
2023/08/16 02:58:14;;;;;;;112.13;3.40;;;23.80;51.90;;;;;;5053058;28;20201;-75
2023/08/16 03:00:39;;;;;;;112.30;3.33;;;23.80;51.90;;;;;;5052905;28;20726;-75
2023/08/16 03:03:06;;;;;;;111.77;3.47;;;23.70;52.10;;;;;;5053028;28;20517;-75
2023/08/16 03:05:31;;;;;;;112.30;3.50;;;23.80;51.90;;;;;;5052503;28;20733;-75
2023/08/16 03:07:57;;;;;;;111.47;2.93;;;23.70;51.90;;;;;;5052293;28;20478;-75
2023/08/16 03:10:23;;;;;;;111.77;3.03;;;23.70;51.90;;;;;;5046458;28;20203;-76
2023/08/16 03:12:48;;;;;;;110.93;3.00;;;23.60;52.70;;;;;;5044702;28;20188;-75
2023/08/16 03:15:14;;;;;;;116.83;3.50;;;23.90;51.00;;;;;;5039770;28;20208;-76
2023/08/16 03:17:39;;;;;;;111.87;3.17;;;24.20;49.20;;;;;;5045113;28;20725;-76
2023/08/16 03:20:07;;;;;;;112.60;3.43;;;24.20;49.40;;;;;;5046062;28;20211;-75
2023/08/16 03:22:33;;;;;;;111.77;3.03;;;24.30;49.20;;;;;;5023070;28;20598;-75
2023/08/16 03:24:58;;;;;;;112.10;3.40;;;24.30;48.70;;;;;;5048164;28;20417;-75
2023/08/16 03:27:24;;;;;;;112.07;3.37;;;24.30;48.50;;;;;;5044042;28;20664;-76
2023/08/16 03:29:50;;;;;;;111.70;3.10;;;24.30;49.40;;;;;;5039615;28;20219;-76
2023/08/16 03:32:15;;;;;;;114.20;4.20;;;24.00;49.50;;;;;;5047254;28;20214;-76
2023/08/16 03:34:42;;;;;;;111.60;3.00;;;23.80;50.00;;;;;;5053507;28;20186;-75
2023/08/16 03:37:07;;;;;;;112.60;3.80;;;23.70;51.10;;;;;;5057612;28;20185;-75
2023/08/16 03:39:33;;;;;;;111.77;3.27;;;23.70;51.00;;;;;;5044635;28;20445;-75
2023/08/16 03:41:59;;;;;;;111.50;2.83;;;23.70;51.90;;;;;;5047816;28;20546;-76
2023/08/16 03:44:25;;;;;;;111.97;3.17;;;23.70;51.60;;;;;;5052092;28;20546;-76
2023/08/16 03:46:50;;;;;;;112.50;3.17;;;23.80;50.70;;;;;;5052153;28;20266;-75
2023/08/16 03:49:16;;;;;;;111.93;3.37;;;23.80;50.30;;;;;;5051836;28;20179;-75
2023/08/16 03:51:42;;;;;;;112.50;3.47;;;24.00;49.40;;;;;;5052015;28;20294;-75
2023/08/16 03:54:07;;;;;;;112.10;3.50;;;23.80;49.80;;;;;;5052173;28;20178;-75
2023/08/16 03:56:33;;;;;;;112.07;3.53;;;23.70;50.40;;;;;;5051635;28;20206;-74
2023/08/16 03:58:59;;;;;;;112.10;3.50;;;23.50;51.80;;;;;;5052033;28;20263;-76
2023/08/16 04:01:24;;;;;;;111.87;3.20;;;23.60;52.20;;;;;;5051874;28;20187;-75
2023/08/16 04:03:50;;;;;;;112.07;3.17;;;23.50;52.30;;;;;;5051729;28;20172;-75
2023/08/16 04:06:19;;;;;;;112.17;3.30;;;23.80;50.80;;;;;;5051641;28;20789;-75
2023/08/16 04:08:45;;;;;;;111.60;2.87;;;23.60;51.00;;;;;;5051746;28;20171;-76
2023/08/16 04:11:10;;;;;;;111.70;3.07;;;23.10;53.80;;;;;;5033657;28;20541;-76
2023/08/16 04:13:37;;;;;;;111.97;3.30;;;22.60;55.80;;;;;;5051646;28;20639;-75
2023/08/16 04:16:03;;;;;;;112.10;3.33;;;21.70;63.40;;;;;;5051450;28;20704;-75
2023/08/16 04:18:29;;;;;;;111.57;2.90;;;21.10;69.50;;;;;;5051481;28;20500;-75
2023/08/16 04:20:55;;;;;;;112.73;3.80;;;20.90;72.00;;;;;;5051473;28;20665;-75
2023/08/16 04:23:21;;;;;;;111.87;3.07;;;21.20;71.20;;;;;;5052059;28;20410;-75
2023/08/16 04:25:47;;;;;;;112.67;3.57;;;21.50;67.10;;;;;;5051258;28;20839;-75
2023/08/16 04:28:13;;;;;;;112.70;3.80;;;21.50;68.10;;;;;;5051534;28;20460;-75
2023/08/16 04:30:38;;;;;;;112.67;3.47;;;22.10;64.60;;;;;;5051264;28;20239;-75
2023/08/16 04:33:04;;;;;;;111.97;2.97;;;22.70;60.40;;;;;;5051236;28;20182;-76
2023/08/16 04:35:29;;;;;;;111.80;3.23;;;22.90;57.70;;;;;;5051197;28;20175;-75
2023/08/16 04:37:55;;;;;;;112.07;3.10;;;23.10;56.30;;;;;;5051353;28;20191;-75
2023/08/16 04:40:20;;;;;;;111.90;3.27;;;23.20;56.70;;;;;;5051106;28;20191;-75
2023/08/16 04:42:46;;;;;;;111.87;3.00;;;23.40;55.40;;;;;;5051281;28;20276;-75
2023/08/16 04:45:12;;;;;;;113.17;3.43;;;23.40;54.60;;;;;;5051050;28;20179;-75
2023/08/16 04:47:37;;;;;;;112.57;3.67;;;23.30;54.50;;;;;;5051039;28;20231;-76
2023/08/16 04:50:06;;;;;;;111.83;3.10;;;23.20;54.90;;;;;;5051289;28;20256;-75
2023/08/16 04:52:32;;;;;;;112.20;3.13;;;23.20;55.00;;;;;;5051050;28;20209;-75
2023/08/16 04:54:59;;;;;;;111.97;3.20;;;23.30;54.70;;;;;;5051005;28;20398;-75
2023/08/16 04:57:25;;;;;;;112.70;3.33;;;23.40;54.20;;;;;;5051105;28;20483;-75
2023/08/16 04:59:50;;;;;;;111.67;3.00;;;23.30;54.60;;;;;;5051354;28;20799;-75
2023/08/16 05:02:16;;;;;;;112.27;3.40;;;23.30;55.20;;;;;;5051332;28;20408;-75
2023/08/16 05:04:41;;;;;;;112.57;3.47;;;23.40;54.80;;;;;;5051353;28;20246;-75
2023/08/16 05:07:07;;;;;;;112.23;3.40;;;23.50;54.50;;;;;;5033580;28;20670;-75
2023/08/16 05:09:33;;;;;;;112.10;3.30;;;23.50;54.40;;;;;;5051330;28;20577;-76
2023/08/16 05:11:58;;;;;;;113.00;3.50;;;23.70;55.40;;;;;;5051367;28;20267;-75
2023/08/16 05:14:24;;;;;;;112.27;3.20;;;23.50;55.50;;;;;;5051332;28;20168;-75
2023/08/16 05:16:49;;;;;;;112.27;3.20;;;23.50;55.00;;;;;;5033205;28;20174;-75
2023/08/16 05:19:15;;;;;;;113.57;3.87;;;23.60;55.20;;;;;;5051296;28;20171;-75
2023/08/16 05:21:40;;;;;;;111.67;2.83;;;23.80;55.10;;;;;;5051553;28;20176;-75
2023/08/16 05:24:06;;;;;;;112.57;3.80;;;23.70;55.40;;;;;;5051510;28;20175;-75
2023/08/16 05:26:32;;;;;;;111.83;2.90;;;23.80;54.80;;;;;;5051034;28;20546;-75
2023/08/16 05:28:58;;;;;;;112.27;3.27;;;23.80;54.20;;;;;;5051341;28;20407;-75
2023/08/16 05:31:24;;;;;;;116.27;4.00;;;24.00;54.20;;;;;;5050956;28;20229;-75
2023/08/16 05:33:49;;;;;;;112.07;3.40;;;24.00;53.80;;;;;;5051226;28;20900;-75
2023/08/16 05:36:16;;;;;;;112.40;3.60;;;24.10;53.70;;;;;;5050906;28;20179;-75
2023/08/16 05:38:41;;;;;;;112.70;3.30;;;24.00;53.80;;;;;;5051238;28;20165;-75
2023/08/16 05:41:07;;;;;;;112.47;3.53;;;24.10;53.70;;;;;;5051145;28;20438;-75
2023/08/16 05:43:33;;;;;;;112.20;3.23;;;24.10;54.10;;;;;;5051133;28;20544;-75
2023/08/16 05:45:58;;;;;;;112.80;3.60;;;24.20;53.50;;;;;;5050770;28;20168;-75
2023/08/16 05:48:24;;;;;;;112.10;2.90;;;24.30;53.30;;;;;;5051044;28;20179;-75
2023/08/16 05:50:50;;;;;;;112.77;3.50;;;24.30;53.20;;;;;;5050926;28;20222;-75
2023/08/16 05:53:15;;;;;;;112.13;3.20;;;24.40;53.30;;;;;;5054625;28;20264;-75
2023/08/16 05:55:41;;;;;;;112.07;3.37;;;24.10;55.30;;;;;;5054458;28;20179;-75
2023/08/16 05:58:06;;;;;;;112.67;3.77;;;24.40;54.50;;;;;;5054503;28;20168;-75
2023/08/16 06:00:32;;;;;;;112.07;3.27;;;24.40;53.90;;;;;;5054391;28;20190;-75
2023/08/16 06:02:58;;;;;;;111.90;3.27;;;24.60;53.60;;;;;;5054547;28;20563;-76
2023/08/16 06:05:24;;;;;;;112.50;3.63;;;24.30;53.40;;;;;;5036318;28;20665;-76
2023/08/16 06:07:49;;;;;;;112.47;3.70;;;24.60;53.90;;;;;;5054357;28;20438;-76
2023/08/16 06:10:15;;;;;;;112.27;3.40;;;24.80;50.50;;;;;;5079094;22;20285;-82
2023/08/16 06:12:40;;;;;;;112.23;3.40;;;24.80;51.40;;;;;;5042895;28;20214;-83
2023/08/16 06:15:12;;;;;;;113.07;4.10;;;25.00;51.20;;;;;;5060636;28;20186;-82
2023/08/16 06:17:38;;;;;;;112.27;3.30;;;25.00;49.80;;;;;;5061762;28;20190;-82
2023/08/16 06:20:07;;;;;;;112.50;3.70;;;25.00;51.90;;;;;;5060065;28;20517;-82
2023/08/16 06:22:33;;;;;;;114.07;3.87;;;25.10;49.80;;;;;;5060550;28;20424;-82
2023/08/16 06:24:59;;;;;;;111.80;3.27;;;25.10;48.60;;;;;;5060458;28;20888;-82
2023/08/16 06:27:25;;;;;;;118.97;3.43;;;24.60;51.30;;;;;;5060540;28;20424;-82
2023/08/16 06:29:51;;;;;;;112.30;3.33;;;24.20;52.90;;;;;;5060837;28;20426;-81
2023/08/16 06:32:16;;;;;;;112.60;3.60;;;24.80;52.10;;;;;;5059097;28;20206;-82
2023/08/16 06:34:42;;;;;;;112.10;3.40;;;25.30;51.00;;;;;;5058349;28;20167;-83
2023/08/16 06:37:07;;;;;;;112.30;3.30;;;25.30;48.80;;;;;;5058041;28;20545;-83
2023/08/16 06:39:33;;;;;;;113.67;3.87;;;24.30;52.30;;;;;;5040853;28;20745;-82
2023/08/16 06:41:59;;;;;;;112.40;3.43;;;24.20;53.00;;;;;;5056479;28;20172;-82
2023/08/16 06:44:24;;;;;;;131.13;3.60;;;24.20;53.00;;;;;;5054780;28;20589;-82
2023/08/16 06:46:50;;;;;;;112.07;3.40;;;24.90;51.60;;;;;;5036749;28;20172;-83
2023/08/16 06:49:16;;;;;;;112.10;3.73;;;25.50;50.30;;;;;;5054041;28;20206;-83
2023/08/16 06:51:41;;;;;;;112.10;3.70;;;25.70;47.60;;;;;;5053762;28;20207;-83
2023/08/16 06:54:07;;;;;;;112.67;3.80;;;25.20;48.40;;;;;;5054358;28;20202;-83
2023/08/16 06:56:33;;;;;;;112.60;3.57;;;25.50;48.80;;;;;;5053720;28;20221;-83
2023/08/16 06:58:58;;;;;;;112.70;3.73;;;25.70;47.80;;;;;;5053918;28;20402;-83
2023/08/16 07:01:24;;;;;;;111.90;3.80;;;26.10;47.10;;;;;;5036053;28;20203;-83
2023/08/16 07:03:49;;;;;;;111.80;3.50;;;26.30;45.40;;;;;;5036191;28;20706;-80
2023/08/16 07:06:15;;;;;;;111.40;3.20;;;25.90;46.00;;;;;;5053955;28;20176;-80
2023/08/16 07:08:41;;;;;;;111.30;2.90;;;26.20;46.40;;;;;;5054266;28;20171;-80
2023/08/16 07:11:07;;;;;;;111.20;3.10;;;26.40;47.30;;;;;;5053909;28;20250;-81
2023/08/16 07:13:33;;;;;;;111.67;3.53;;;26.40;45.70;;;;;;5053778;28;20175;-83
2023/08/16 07:15:58;;;;;;;112.90;3.40;;;26.10;47.10;;;;;;5053398;28;20403;-83
2023/08/16 07:18:24;;;;;;;112.17;3.70;;;25.90;46.90;;;;;;5060622;28;20211;-83
2023/08/16 07:20:50;;;;;;;112.00;3.70;;;26.40;47.30;;;;;;5061486;28;20234;-80
2023/08/16 07:23:16;;;;;;;111.73;3.67;;;26.90;46.70;;;;;;5056541;28;20183;-80
2023/08/16 07:25:41;;;;;;;111.73;3.50;;;26.30;46.40;;;;;;5057399;28;20410;-80
2023/08/16 07:28:07;;;;;;;111.20;3.17;;;26.00;47.10;;;;;;5057420;28;20662;-80
2023/08/16 07:30:36;;;;;;;112.80;3.80;;;26.10;49.20;;;;;;5057256;28;20192;-80
2023/08/16 07:33:02;;;;;;;111.30;3.40;;;26.40;47.30;;;;;;5054791;28;20182;-81
2023/08/16 07:35:28;;;;;;;111.50;3.10;;;25.90;48.40;;;;;;5053544;28;20764;-80
2023/08/16 07:37:54;;;;;;;112.67;4.00;;;25.90;48.40;;;;;;5053643;28;20167;-80
2023/08/16 07:40:19;;;;;;;111.20;3.40;;;26.30;47.20;;;;;;5062906;28;20215;-80
2023/08/16 07:42:45;;;;;;;111.20;3.53;;;26.30;47.20;;;;;;5074754;28;20426;-79
2023/08/16 07:45:11;;;;;;;110.90;3.07;;;26.10;47.10;;;;;;5073670;28;20179;-80
2023/08/16 07:47:37;;;;;;;110.87;3.10;;;26.50;46.00;;;;;;5072328;28;20175;-80
2023/08/16 07:50:03;;;;;;;111.90;3.30;;;26.30;46.80;;;;;;5072621;28;20421;-80
2023/08/16 07:52:28;;;;;;;110.40;3.07;;;26.30;46.20;;;;;;5077343;28;20211;-80
2023/08/16 07:54:55;;;;;;;111.27;3.73;;;26.70;44.70;;;;;;5077848;28;20414;-80
2023/08/16 07:57:20;;;;;;;111.87;3.60;;;26.70;44.90;;;;;;5060779;28;20168;-80
2023/08/16 07:59:46;;;;;;;111.77;3.47;;;26.30;46.50;;;;;;5078140;28;20426;-79
2023/08/16 08:02:12;;;;;;;110.57;3.17;;;26.20;46.40;;;;;;5078253;28;20176;-79
2023/08/16 08:04:38;;;;;;;110.67;3.00;;;25.90;47.40;;;;;;5064484;28;20248;-82
2023/08/16 08:07:04;;;;;;;111.00;3.67;;;25.60;48.80;;;;;;5063034;28;20267;-82
2023/08/16 08:09:31;;;;;;;113.70;4.57;;;26.30;47.10;;;;;;5057133;28;20437;-83
2023/08/16 08:11:57;;;;;;;111.97;3.13;;;26.30;47.80;;;;;;5056385;28;21335;-83
2023/08/16 08:14:22;;;;;;;110.27;3.33;;;26.30;46.10;;;;;;5056234;28;20418;-83
2023/08/16 08:16:48;;;;;;;110.53;3.60;;;26.40;47.30;;;;;;5056632;28;20177;-82
2023/08/16 08:19:14;;;;;;;110.77;3.47;;;26.40;47.10;;;;;;5056441;28;20247;-83
2023/08/16 08:21:40;;;;;;;110.70;3.23;;;26.30;47.90;;;;;;5054776;28;20469;-80
2023/08/16 08:24:05;;;;;;;110.23;3.47;;;26.30;46.00;;;;;;5056248;28;20257;-80
2023/08/16 08:26:31;;;;;;;111.07;3.70;;;26.30;48.00;;;;;;5056160;28;20175;-80
2023/08/16 08:28:57;;;;;;;110.40;3.73;;;26.60;45.60;;;;;;5056595;28;20174;-80
2023/08/16 08:31:23;;;;;;;110.13;3.57;;;27.00;45.50;;;;;;5056094;28;20210;-80
2023/08/16 08:33:49;;;;;;;109.80;3.13;;;27.20;44.50;;;;;;5055804;28;20233;-80
2023/08/16 08:36:15;;;;;;;111.70;3.47;;;27.10;44.40;;;;;;5055883;28;20192;-80
2023/08/16 08:38:41;;;;;;;110.37;3.27;;;26.70;46.50;;;;;;5056049;28;20459;-81
2023/08/16 08:41:08;;;;;;;111.27;4.10;;;27.30;44.50;;;;;;5055728;28;20461;-80
2023/08/16 08:43:35;;;;;;;110.50;3.13;;;27.90;43.80;;;;;;5054332;28;20413;-81
2023/08/16 08:46:02;;;;;;;112.13;4.50;;;27.20;43.40;;;;;;5055076;28;20497;-80
2023/08/16 08:48:28;;;;;;;111.13;3.80;;;27.00;46.20;;;;;;5054285;28;20478;-80
2023/08/16 08:50:54;;;;;;;111.07;3.90;;;26.60;45.80;;;;;;5054731;28;20433;-80
2023/08/16 08:53:21;;;;;;;110.30;3.20;;;26.70;46.40;;;;;;5054881;28;20406;-80
2023/08/16 08:55:48;;;;;;;110.57;3.60;;;27.20;45.30;;;;;;5054177;28;20410;-80
2023/08/16 08:58:17;;;;;;;110.20;3.40;;;27.20;44.70;;;;;;5036536;28;20442;-81
2023/08/16 09:00:43;;;;;;;109.60;2.90;;;27.20;44.50;;;;;;5054642;28;20509;-80
2023/08/16 09:03:10;;;;;;;110.07;3.10;;;27.50;44.70;;;;;;5055169;28;20968;-81
2023/08/16 09:05:39;;;;;;;120.60;3.83;;;28.00;45.50;;;;;;5055002;28;20167;-81
2023/08/16 09:08:06;;;;;;;109.70;3.10;;;27.90;41.90;;;;;;5055158;28;20410;-80
2023/08/16 09:10:38;;;;;;;110.00;3.50;;;27.80;42.60;;;;;;5054480;28;20495;-80
2023/08/16 09:13:06;;;;;;;109.60;3.10;;;27.90;44.20;;;;;;5054410;28;20471;-81
2023/08/16 09:15:34;;;;;;;110.20;3.23;;;28.30;41.70;;;;;;5053565;28;20402;-81
2023/08/16 09:18:17;;;;;;;110.63;3.67;;;28.20;41.20;;;;;;5054624;28;20402;-80
2023/08/16 09:20:43;;;;;;;110.17;3.40;;;28.40;43.50;;;;;;5054202;28;20422;-81
2023/08/16 09:23:13;;;;;;;109.87;3.23;;;29.00;41.10;;;;;;5054077;28;20398;-80
2023/08/16 09:25:39;;;;;;;109.67;3.10;;;29.10;40.60;;;;;;5054086;28;20413;-80
2023/08/16 09:28:08;;;;;;;110.07;3.10;;;28.80;40.80;;;;;;5058011;28;20410;-80
2023/08/16 09:30:34;;;;;;;110.00;3.37;;;28.30;43.50;;;;;;5057972;28;20421;-81
2023/08/16 09:33:00;;;;;;;109.77;3.33;;;28.50;40.70;;;;;;5057410;28;20575;-80
2023/08/16 09:35:30;;;;;;;109.83;3.30;;;28.00;42.70;;;;;;5057478;28;20167;-80
2023/08/16 09:38:00;;;;;;;110.50;3.67;;;28.50;43.00;;;;;;5057551;28;20546;-81
2023/08/16 09:40:26;;;;;;;108.90;2.83;;;29.00;41.30;;;;;;5057569;28;20948;-81
2023/08/16 09:42:57;;;;;;;109.87;3.30;;;29.50;40.40;;;;;;5056836;28;20441;-81
2023/08/16 09:45:34;;;;;;;109.60;3.40;;;29.10;38.90;;;;;;5056908;28;20500;-81
2023/08/16 09:48:00;;;;;;;109.27;3.10;;;28.50;41.30;;;;;;5056612;28;20414;-80
2023/08/16 09:50:32;;;;;;;109.17;2.97;;;28.50;42.00;;;;;;5057274;28;20433;-81
2023/08/16 09:52:58;;;;;;;109.40;3.20;;;28.70;41.90;;;;;;5056774;28;20450;-81
2023/08/16 09:55:30;;;;;;;109.23;3.40;;;29.00;40.90;;;;;;5056754;28;20415;-81
2023/08/16 09:57:58;;;;;;;109.27;3.20;;;29.50;39.10;;;;;;5057176;28;20414;-80
2023/08/16 10:00:25;;;;;;;108.83;2.90;;;29.70;38.90;;;;;;5056671;28;20426;-81
2023/08/16 10:02:52;;;;;;;110.00;3.57;;;30.10;38.20;;;;;;5056444;28;20409;-81
2023/08/16 10:05:18;;;;;;;108.60;3.10;;;30.00;37.70;;;;;;5055481;28;20931;-80
2023/08/16 10:07:47;;;;;;;108.87;3.20;;;29.70;37.90;;;;;;5056003;28;20410;-81
2023/08/16 10:10:13;;;;;;;108.17;2.60;;;28.90;38.90;;;;;;5056663;28;20199;-81
2023/08/16 10:12:39;;;;;;;108.67;3.10;;;29.10;39.90;;;;;;5055752;28;20441;-81
2023/08/16 10:15:05;;;;;;;108.10;2.70;;;29.30;39.70;;;;;;5055851;28;20846;-81
2023/08/16 10:17:32;;;;;;;109.57;3.60;;;29.90;38.60;;;;;;5055528;28;20168;-81
2023/08/16 10:20:04;;;;;;;108.63;3.10;;;30.00;38.40;;;;;;5055286;28;20516;-80
2023/08/16 10:22:37;;;;;;;108.57;3.07;;;29.50;38.30;;;;;;5037349;28;20418;-81
2023/08/16 10:25:11;;;;;;;108.73;3.40;;;29.30;40.10;;;;;;5054874;28;20414;-81
2023/08/16 10:27:38;;;;;;;110.80;3.10;;;29.70;38.10;;;;;;5054929;28;20467;-81
2023/08/16 10:30:09;;;;;;;109.47;3.57;;;29.60;38.00;;;;;;5055115;28;20844;-81
2023/08/16 10:32:38;;;;;;;108.30;3.20;;;29.20;38.20;;;;;;5054655;28;20469;-80
2023/08/16 10:35:05;;;;;;;108.07;3.13;;;29.30;38.70;;;;;;5054806;28;20459;-81
2023/08/16 10:37:31;;;;;;;108.20;3.07;;;29.70;39.70;;;;;;5054127;28;20414;-81
2023/08/16 10:39:57;;;;;;;107.50;3.10;;;30.00;38.90;;;;;;5054314;28;20437;-81
2023/08/16 10:42:29;;;;;;;107.87;3.00;;;30.40;36.80;;;;;;5054736;28;20434;-81
2023/08/16 10:44:55;;;;;;;107.90;3.03;;;30.20;38.60;;;;;;5054056;28;20164;-81
2023/08/16 10:47:28;;;;;;;107.07;2.77;;;29.90;37.40;;;;;;5054667;28;20418;-81
2023/08/16 10:49:53;;;;;;;107.40;2.90;;;29.90;38.10;;;;;;5054335;28;20195;-81
2023/08/16 10:52:29;;;;;;;107.00;2.77;;;30.00;37.10;;;;;;5054572;28;20537;-81
2023/08/16 10:54:55;;;;;;;107.40;3.20;;;30.40;36.30;;;;;;5053895;28;20174;-81
2023/08/16 10:57:25;;;;;;;107.63;3.10;;;30.30;35.60;;;;;;5054991;28;20493;-81
2023/08/16 11:00:01;;;;;;;109.07;3.50;;;30.90;37.40;;;;;;5054692;28;20433;-81
2023/08/16 11:02:30;;;;;;;107.73;3.13;;;31.70;34.30;;;;;;5054310;28;20417;-82
2023/08/16 11:04:56;;;;;;;108.07;3.17;;;32.20;32.90;;;;;;5054001;28;20475;-82
2023/08/16 11:07:23;;;;;;;107.57;2.90;;;32.50;33.10;;;;;;5053592;28;20409;-82
2023/08/16 11:09:48;;;;;;;107.57;2.83;;;32.60;31.60;;;;;;5053218;28;20286;-82
2023/08/16 11:12:16;;;;;;;106.97;2.77;;;32.60;31.70;;;;;;5053336;28;20576;-81
2023/08/16 11:14:44;;;;;;;107.47;3.03;;;32.70;29.80;;;;;;5053143;28;20250;-81
2023/08/16 11:17:14;;;;;;;106.47;2.67;;;33.00;30.50;;;;;;5053239;28;20414;-82
2023/08/16 11:19:41;;;;;;;106.70;3.00;;;33.10;29.30;;;;;;5053170;28;20394;-82
2023/08/16 11:22:07;;;;;;;106.27;2.70;;;33.20;28.60;;;;;;5053274;28;20417;-81
2023/08/16 11:24:34;;;;;;;105.83;2.63;;;32.20;30.00;;;;;;5052923;28;20414;-81
2023/08/16 11:27:02;;;;;;;106.57;2.73;;;32.90;30.80;;;;;;5053117;28;20813;-82
2023/08/16 11:29:28;;;;;;;106.77;2.90;;;33.30;29.40;;;;;;5053019;28;20410;-82
2023/08/16 11:31:57;;;;;;;106.07;2.60;;;32.50;29.20;;;;;;5052922;28;20834;-82
2023/08/16 11:34:23;;;;;;;106.50;2.87;;;31.90;30.70;;;;;;5053110;28;20176;-81
2023/08/16 11:36:49;;;;;;;105.50;2.67;;;31.60;31.20;;;;;;5052843;28;20506;-81
2023/08/16 11:39:15;;;;;;;105.53;2.60;;;31.90;30.90;;;;;;5053070;28;20172;-81
2023/08/16 11:41:41;;;;;;;106.23;3.00;;;32.60;29.10;;;;;;5053082;28;20329;-82
2023/08/16 11:44:07;;;;;;;105.00;2.50;;;33.50;31.20;;;;;;5052747;28;20441;-81
2023/08/16 11:46:48;;;;;;;104.87;2.40;;;34.50;28.80;;;;;;5052471;28;20172;-82
2023/08/16 11:49:14;;;;;;;105.17;2.60;;;34.40;25.90;;;;;;5052145;28;20517;-81
2023/08/16 11:51:41;;;;;;;105.07;2.90;;;33.90;27.20;;;;;;5052376;28;20811;-82
2023/08/16 11:54:08;;;;;;;104.00;2.33;;;35.30;26.80;;;;;;5052652;28;20402;-81
2023/08/16 11:56:34;;;;;;;104.10;2.50;;;35.90;24.10;;;;;;5052611;28;20492;-81
2023/08/16 11:59:00;;;;;;;104.07;2.40;;;36.40;23.40;;;;;;5053074;28;20460;-81
2023/08/16 12:01:26;;;;;;;103.87;2.40;;;35.70;23.50;;;;;;5052398;28;20195;-81
2023/08/16 12:03:52;;;;;;;104.10;2.63;;;35.80;25.20;;;;;;5052516;28;20250;-82
2023/08/16 12:06:20;;;;;;;104.67;2.50;;;35.60;23.10;;;;;;5052165;28;20414;-81
2023/08/16 12:08:51;;;;;;;103.87;2.43;;;35.60;24.10;;;;;;5052339;28;20497;-82
2023/08/16 12:11:26;;;;;;;103.50;2.30;;;36.40;23.50;;;;;;5074346;22;20521;-74
2023/08/16 12:13:52;;;;;;;103.47;2.30;;;36.90;22.90;;;;;;5052332;28;20467;-74
2023/08/16 12:16:17;;;;;;;103.50;2.37;;;36.90;22.90;;;;;;5051824;28;20407;-74
2023/08/16 12:18:43;;;;;;;103.33;2.47;;;37.00;22.40;;;;;;5052150;28;20167;-74
2023/08/16 12:21:08;;;;;;;103.07;2.20;;;37.20;21.90;;;;;;5051850;28;20204;-74
2023/08/16 12:23:34;;;;;;;102.97;2.20;;;37.40;21.70;;;;;;5034188;28;20172;-74
2023/08/16 12:26:00;;;;;;;103.37;2.33;;;37.60;21.10;;;;;;5051598;28;20282;-74